Time;durP1;ratioP1;P1;durP2;ratioP2;P2;SDS_P1;SDS_P2;PMS_P1;PMS_P2;Temp;Humidity;BMP_temperature;BMP_pressure;BME280_temperature;BME280_humidity;BME280_pressure;Samples;Min_cycle;Max_cycle;Signal;HPM_P1;HPM_P2
2020/12/02 00:01:16;;;;;;;0.50;0.32;;;9.80;96.70;;;;;;5122616;27;20047;-79
2020/12/02 00:03:54;;;;;;;1.25;0.50;;;9.70;96.70;;;;;;5105794;27;20441;-79
2020/12/02 00:06:22;;;;;;;0.43;0.30;;;9.70;96.70;;;;;;5120784;27;20066;-80
2020/12/02 00:08:57;;;;;;;0.30;0.20;;;9.60;96.70;;;;;;5103719;27;20043;-81
2020/12/02 00:11:27;;;;;;;0.60;0.32;;;9.60;96.70;;;;;;5113550;27;20069;-80
2020/12/02 00:14:01;;;;;;;0.63;0.20;;;9.60;96.70;;;;;;5122719;27;20079;-79
2020/12/02 00:16:31;;;;;;;1.27;0.45;;;9.50;96.70;;;;;;5105773;27;20043;-79
2020/12/02 00:19:00;;;;;;;1.15;0.40;;;9.50;96.70;;;;;;5119781;27;20039;-80
2020/12/02 00:21:30;;;;;;;0.40;0.20;;;9.40;96.70;;;;;;5121794;27;20031;-81
2020/12/02 00:23:59;;;;;;;0.30;0.10;;;9.40;96.70;;;;;;5119131;27;20050;-80
2020/12/02 00:26:27;;;;;;;0.35;0.20;;;9.40;96.70;;;;;;5093550;27;20039;-79
2020/12/02 00:28:57;;;;;;;0.95;0.22;;;9.30;96.70;;;;;;5106091;27;20047;-79
2020/12/02 00:31:25;;;;;;;0.50;0.10;;;9.30;96.70;;;;;;5137028;27;20137;-79
2020/12/02 00:33:53;;;;;;;0.22;0.15;;;9.20;96.70;;;;;;5115705;27;20042;-79
2020/12/02 00:36:20;;;;;;;0.50;0.20;;;9.20;96.70;;;;;;5138527;27;20066;-80
2020/12/02 00:38:47;;;;;;;0.60;0.30;;;9.20;96.70;;;;;;5140370;27;20031;-79
2020/12/02 00:41:15;;;;;;;0.50;0.22;;;9.20;96.70;;;;;;5116953;27;20039;-79
2020/12/02 00:43:44;;;;;;;0.95;0.50;;;9.20;96.70;;;;;;5120497;27;20035;-79
2020/12/02 00:46:13;;;;;;;0.30;0.20;;;9.20;96.70;;;;;;5139668;27;20035;-78
2020/12/02 00:48:49;;;;;;;0.65;0.20;;;9.10;96.70;;;;;;5116826;27;20050;-79
2020/12/02 00:51:17;;;;;;;5.35;0.43;;;9.10;96.70;;;;;;5120512;27;20039;-79
2020/12/02 00:53:45;;;;;;;0.38;0.20;;;9.00;96.70;;;;;;5107500;27;20043;-79
2020/12/02 00:56:14;;;;;;;0.65;0.20;;;9.10;96.70;;;;;;5099947;27;20046;-79
2020/12/02 00:58:52;;;;;;;0.30;0.10;;;9.10;96.70;;;;;;5121290;27;20049;-79
2020/12/02 01:01:29;;;;;;;0.32;0.17;;;9.00;96.70;;;;;;5117918;27;20521;-79
2020/12/02 01:03:58;;;;;;;0.28;0.08;;;9.00;96.70;;;;;;5117641;27;20143;-79
2020/12/02 01:06:26;;;;;;;0.10;0.03;;;9.00;96.70;;;;;;5124545;27;20459;-79
2020/12/02 01:08:53;;;;;;;1.25;0.10;;;9.00;96.70;;;;;;5121848;27;20030;-79
2020/12/02 01:11:23;;;;;;;0.03;0.00;;;9.00;96.70;;;;;;5124473;27;20519;-80
2020/12/02 01:13:55;;;;;;;0.10;0.00;;;9.00;96.70;;;;;;5126291;27;20499;-78
2020/12/02 01:16:33;;;;;;;0.20;0.00;;;9.00;96.70;;;;;;5123838;27;20087;-79
2020/12/02 01:19:04;;;;;;;0.20;0.05;;;9.00;96.70;;;;;;5147896;27;20057;-79
2020/12/02 01:21:37;;;;;;;0.00;0.00;;;8.90;96.70;;;;;;5130751;27;20050;-78
2020/12/02 01:24:09;;;;;;;0.45;0.00;;;8.90;96.70;;;;;;5124517;27;20514;-78
2020/12/02 01:26:40;;;;;;;0.17;0.00;;;8.90;96.70;;;;;;5107551;27;20035;-78
2020/12/02 01:29:14;;;;;;;0.00;0.00;;;9.00;96.70;;;;;;5120053;27;20059;-79
2020/12/02 01:31:45;;;;;;;0.20;0.03;;;9.00;96.70;;;;;;5125158;27;20046;-78
2020/12/02 01:34:13;;;;;;;0.60;0.10;;;8.90;96.70;;;;;;5123531;27;20570;-78
2020/12/02 01:36:56;;;;;;;0.90;0.10;;;8.90;96.70;;;;;;5145607;27;20042;-78
2020/12/02 01:39:24;;;;;;;0.35;0.17;;;9.00;96.70;;;;;;5124911;27;20034;-78
2020/12/02 01:41:51;;;;;;;0.43;0.17;;;9.00;96.70;;;;;;5122905;27;20030;-78
2020/12/02 01:44:19;;;;;;;1.48;0.20;;;9.00;96.70;;;;;;5123288;27;20057;-79
2020/12/02 01:46:58;;;;;;;0.47;0.17;;;9.00;96.70;;;;;;5138078;27;20042;-79
2020/12/02 01:49:35;;;;;;;0.30;0.10;;;9.10;96.70;;;;;;5111963;27;20050;-78
2020/12/02 01:52:14;;;;;;;0.95;0.40;;;9.10;96.70;;;;;;5107378;27;20039;-79
2020/12/02 01:54:45;;;;;;;1.00;0.28;;;9.10;96.70;;;;;;5121242;27;20122;-77
2020/12/02 01:57:21;;;;;;;0.80;0.30;;;9.10;96.70;;;;;;5126191;27;20068;-77
2020/12/02 01:59:59;;;;;;;1.63;0.43;;;9.20;96.70;;;;;;5120600;27;20046;-76
2020/12/02 02:02:40;;;;;;;1.58;0.40;;;9.20;96.70;;;;;;5105311;27;20492;-77
2020/12/02 02:05:11;;;;;;;1.27;0.10;;;9.20;96.70;;;;;;5120318;27;20049;-77
2020/12/02 02:07:39;;;;;;;0.65;0.20;;;9.20;96.70;;;;;;5140589;27;20042;-77
2020/12/02 02:10:12;;;;;;;0.30;0.10;;;9.20;96.70;;;;;;5138887;27;20037;-77
2020/12/02 02:13:01;;;;;;;0.20;0.10;;;9.20;96.70;;;;;;5108369;27;20547;-77
2020/12/02 02:15:39;;;;;;;0.20;0.10;;;9.30;96.70;;;;;;5106192;27;20579;-77
2020/12/02 02:18:09;;;;;;;1.23;0.10;;;9.30;96.70;;;;;;5123092;27;20038;-77
2020/12/02 02:20:39;;;;;;;1.23;0.47;;;9.20;96.70;;;;;;5091372;27;20394;-77
2020/12/02 02:23:10;;;;;;;1.88;0.50;;;9.00;96.70;;;;;;5109134;27;20061;-77
2020/12/02 02:25:41;;;;;;;2.10;0.50;;;8.80;96.70;;;;;;5121721;27;20035;-77
2020/12/02 02:28:09;;;;;;;2.47;0.40;;;8.50;96.70;;;;;;5107104;27;20043;-78
2020/12/02 02:30:37;;;;;;;1.35;0.10;;;8.40;96.70;;;;;;5124526;27;20043;-77
2020/12/02 02:33:05;;;;;;;0.85;0.40;;;8.40;96.70;;;;;;5103753;27;20153;-77
2020/12/02 02:35:32;;;;;;;1.10;0.30;;;8.60;96.70;;;;;;5122031;27;20049;-77
2020/12/02 02:37:59;;;;;;;1.23;0.20;;;8.70;96.70;;;;;;5124424;27;20505;-77
2020/12/02 02:40:27;;;;;;;0.08;0.00;;;8.70;96.70;;;;;;5101138;27;20031;-77
2020/12/02 02:43:03;;;;;;;0.43;0.10;;;8.70;96.70;;;;;;5137947;27;20084;-77
2020/12/02 02:45:31;;;;;;;2.22;0.22;;;8.60;96.70;;;;;;5100899;27;20046;-77
2020/12/02 02:48:06;;;;;;;0.45;0.10;;;8.50;96.70;;;;;;5120333;27;20675;-79
2020/12/02 02:50:35;;;;;;;0.17;0.10;;;8.30;96.70;;;;;;5140590;27;20041;-77
2020/12/02 02:53:12;;;;;;;0.30;0.10;;;8.20;96.70;;;;;;5135580;27;20426;-77
2020/12/02 02:55:39;;;;;;;0.20;0.10;;;8.20;96.70;;;;;;5121565;27;20141;-77
2020/12/02 02:58:07;;;;;;;0.30;0.10;;;8.00;96.70;;;;;;5104853;27;20038;-77
2020/12/02 03:00:35;;;;;;;1.75;0.55;;;7.90;96.70;;;;;;5122999;27;20460;-78
2020/12/02 03:03:02;;;;;;;1.80;0.85;;;7.80;96.70;;;;;;5143332;27;20039;-78
2020/12/02 03:05:29;;;;;;;1.42;0.60;;;7.60;96.70;;;;;;5106606;27;20035;-79
2020/12/02 03:07:59;;;;;;;1.60;0.43;;;7.50;96.70;;;;;;5106970;27;20035;-78
2020/12/02 03:10:29;;;;;;;2.58;0.60;;;7.50;96.70;;;;;;5118808;27;20512;-79
2020/12/02 03:12:59;;;;;;;1.73;0.60;;;7.40;96.70;;;;;;5121372;27;20035;-78
2020/12/02 03:15:27;;;;;;;0.50;0.30;;;7.30;96.70;;;;;;5108359;27;20557;-79
2020/12/02 03:17:55;;;;;;;0.70;0.20;;;7.30;96.70;;;;;;5104998;27;20034;-79
2020/12/02 03:20:29;;;;;;;0.25;0.00;;;7.40;96.70;;;;;;5119700;27;20050;-79
2020/12/02 03:22:57;;;;;;;0.65;0.10;;;7.50;96.70;;;;;;5122571;27;20035;-80
2020/12/02 03:25:28;;;;;;;6.50;1.85;;;7.70;96.70;;;;;;5107301;27;20048;-80
2020/12/02 03:27:56;;;;;;;0.30;0.10;;;7.80;96.70;;;;;;5120118;27;20717;-80
2020/12/02 03:30:23;;;;;;;0.45;0.00;;;7.90;96.70;;;;;;5124625;27;20074;-81
2020/12/02 03:32:51;;;;;;;0.52;0.10;;;8.00;96.70;;;;;;5104315;27;20069;-81
2020/12/02 03:35:18;;;;;;;0.20;0.00;;;8.00;96.70;;;;;;5122443;27;20043;-81
2020/12/02 03:37:46;;;;;;;0.47;0.08;;;7.90;96.70;;;;;;5124861;27;20045;-81
2020/12/02 03:40:13;;;;;;;0.40;0.13;;;7.90;96.70;;;;;;5105772;27;20593;-80
2020/12/02 03:42:40;;;;;;;0.63;0.17;;;7.90;96.70;;;;;;5143446;27;20093;-81
2020/12/02 03:45:10;;;;;;;0.20;0.10;;;7.90;96.70;;;;;;5142037;27;20043;-81
2020/12/02 03:47:37;;;;;;;1.35;0.22;;;7.80;96.70;;;;;;5123184;27;20061;-81
2020/12/02 03:50:04;;;;;;;1.23;0.10;;;7.90;96.70;;;;;;5122313;27;20122;-80
2020/12/02 03:52:32;;;;;;;0.30;0.10;;;7.90;96.70;;;;;;5141850;27;20503;-80
2020/12/02 03:54:59;;;;;;;0.52;0.10;;;7.90;96.70;;;;;;5123918;27;20034;-80
2020/12/02 03:57:26;;;;;;;0.60;0.10;;;7.90;96.70;;;;;;5124587;27;20034;-80
2020/12/02 03:59:54;;;;;;;0.50;0.20;;;7.90;96.70;;;;;;5105894;27;20431;-80
2020/12/02 04:02:21;;;;;;;0.85;0.15;;;7.90;96.70;;;;;;5105384;27;20133;-80
2020/12/02 04:04:48;;;;;;;2.50;0.20;;;7.90;96.70;;;;;;5139657;27;20468;-79
2020/12/02 04:07:15;;;;;;;0.30;0.00;;;8.00;96.70;;;;;;5123160;27;20046;-80
2020/12/02 04:09:43;;;;;;;0.85;0.10;;;8.00;96.70;;;;;;5104435;27;20043;-80
2020/12/02 04:12:10;;;;;;;0.80;0.63;;;8.10;96.70;;;;;;5122836;27;20042;-80
2020/12/02 04:14:37;;;;;;;0.30;0.10;;;8.00;96.70;;;;;;5125302;27;20340;-80
2020/12/02 04:17:06;;;;;;;0.30;0.20;;;8.00;96.70;;;;;;5117470;27;20031;-80
2020/12/02 04:19:33;;;;;;;0.60;0.20;;;7.90;96.70;;;;;;5123723;27;20923;-80
2020/12/02 04:22:00;;;;;;;0.38;0.10;;;7.90;96.70;;;;;;5120236;27;21024;-80
2020/12/02 04:24:27;;;;;;;0.28;0.10;;;7.90;96.70;;;;;;5103599;27;20042;-80
2020/12/02 04:26:57;;;;;;;0.43;0.15;;;7.80;96.70;;;;;;5107411;27;20050;-79
2020/12/02 04:29:24;;;;;;;0.40;0.10;;;7.70;96.70;;;;;;5105931;27;20050;-80
2020/12/02 04:31:51;;;;;;;0.43;0.10;;;7.70;96.70;;;;;;5125283;27;20496;-80
2020/12/02 04:34:19;;;;;;;0.68;0.40;;;7.70;96.70;;;;;;5103283;27;20054;-80
2020/12/02 04:36:48;;;;;;;0.40;0.20;;;7.70;96.70;;;;;;5118255;27;20051;-80
2020/12/02 04:39:15;;;;;;;0.30;0.10;;;7.70;96.70;;;;;;5118225;27;20058;-80
2020/12/02 04:41:45;;;;;;;0.30;0.20;;;7.70;96.70;;;;;;5104277;27;20146;-79
2020/12/02 04:44:13;;;;;;;0.20;0.15;;;7.70;96.70;;;;;;5138123;27;20038;-79
2020/12/02 04:46:41;;;;;;;0.43;0.10;;;7.70;96.70;;;;;;5139130;27;20047;-79
2020/12/02 04:49:14;;;;;;;0.90;0.20;;;7.70;96.70;;;;;;5121765;27;20145;-79
2020/12/02 04:51:42;;;;;;;0.45;0.20;;;7.70;96.70;;;;;;5139510;27;20047;-79
2020/12/02 04:54:10;;;;;;;0.35;0.20;;;7.80;96.70;;;;;;5120578;27;20039;-80
2020/12/02 04:56:42;;;;;;;0.30;0.30;;;7.80;96.70;;;;;;5140506;27;20099;-80
2020/12/02 04:59:10;;;;;;;0.15;0.10;;;7.80;96.70;;;;;;5116436;27;20054;-80
2020/12/02 05:01:49;;;;;;;0.30;0.20;;;7.70;96.70;;;;;;5118728;27;20042;-80
2020/12/02 05:04:22;;;;;;;0.13;0.10;;;7.70;96.70;;;;;;5123873;27;20045;-80
2020/12/02 05:07:04;;;;;;;1.00;0.20;;;7.70;96.70;;;;;;5122473;27;20127;-80
2020/12/02 05:09:34;;;;;;;0.63;0.20;;;7.70;96.70;;;;;;5136483;27;20437;-80
2020/12/02 05:12:04;;;;;;;0.17;0.17;;;7.70;96.70;;;;;;5121641;27;20038;-80
2020/12/02 05:14:35;;;;;;;0.90;0.20;;;7.60;96.70;;;;;;5101769;27;20051;-80
2020/12/02 05:17:14;;;;;;;0.35;0.10;;;7.60;96.70;;;;;;5100784;27;20731;-79
2020/12/02 05:19:44;;;;;;;0.80;0.30;;;7.60;96.70;;;;;;5121028;27;20051;-79
2020/12/02 05:22:14;;;;;;;0.38;0.32;;;7.60;96.70;;;;;;5105563;27;20039;-79
2020/12/02 05:24:44;;;;;;;0.50;0.20;;;7.70;96.70;;;;;;5118822;27;20405;-80
2020/12/02 05:27:15;;;;;;;0.35;0.10;;;7.70;96.70;;;;;;5141013;27;20039;-79
2020/12/02 05:29:49;;;;;;;1.15;0.60;;;7.70;96.70;;;;;;5119004;27;20065;-79
2020/12/02 05:32:20;;;;;;;1.17;0.50;;;7.70;96.70;;;;;;5122153;27;20054;-80
2020/12/02 05:34:48;;;;;;;0.52;0.30;;;7.70;96.70;;;;;;5120658;27;20051;-80
2020/12/02 05:37:24;;;;;;;1.33;0.40;;;7.70;96.70;;;;;;5119463;27;20045;-80
2020/12/02 05:39:56;;;;;;;0.60;0.20;;;7.70;96.70;;;;;;5115990;27;20066;-80
2020/12/02 05:42:33;;;;;;;0.50;0.20;;;7.70;96.70;;;;;;5110161;27;20027;-80
2020/12/02 05:45:10;;;;;;;0.30;0.20;;;7.70;96.70;;;;;;5119161;27;20034;-79
2020/12/02 05:47:39;;;;;;;0.20;0.10;;;7.70;96.70;;;;;;5136447;27;20046;-79
2020/12/02 05:50:10;;;;;;;1.20;0.20;;;7.70;96.70;;;;;;5137842;27;20092;-79
2020/12/02 05:52:40;;;;;;;0.75;0.10;;;7.70;96.70;;;;;;5122820;27;20043;-80
2020/12/02 05:55:17;;;;;;;0.17;0.10;;;7.60;96.70;;;;;;5121430;27;20048;-79
2020/12/02 05:57:55;;;;;;;0.73;0.30;;;7.60;96.70;;;;;;5144932;27;20472;-80
2020/12/02 06:00:24;;;;;;;0.90;0.50;;;7.60;96.70;;;;;;5123014;27;20039;-80
2020/12/02 06:02:53;;;;;;;1.08;0.57;;;7.50;96.70;;;;;;5104446;27;20171;-80
2020/12/02 06:05:20;;;;;;;0.88;0.40;;;7.50;96.70;;;;;;5126164;27;20043;-80
2020/12/02 06:07:50;;;;;;;0.70;0.30;;;7.50;96.70;;;;;;5125766;27;20042;-79
2020/12/02 06:10:23;;;;;;;0.10;0.10;;;7.50;96.70;;;;;;5136747;27;20034;-79
2020/12/02 06:12:50;;;;;;;0.45;0.20;;;7.50;96.70;;;;;;5138987;27;20053;-80
2020/12/02 06:15:21;;;;;;;0.38;0.10;;;7.50;96.70;;;;;;5124059;27;20084;-80
2020/12/02 06:17:48;;;;;;;0.75;0.35;;;7.50;96.70;;;;;;5127226;27;20563;-80
2020/12/02 06:20:23;;;;;;;0.60;0.25;;;7.40;96.70;;;;;;5109119;27;20042;-80
2020/12/02 06:22:51;;;;;;;0.55;0.17;;;7.40;96.70;;;;;;5121710;27;20369;-80
2020/12/02 06:25:46;;;;;;;0.17;0.10;;;7.40;96.70;;;;;;5108581;27;21007;-80
2020/12/02 06:28:19;;;;;;;0.15;0.08;;;7.40;96.70;;;;;;5136720;27;20038;-79
2020/12/02 06:30:57;;;;;;;0.52;0.20;;;7.40;96.70;;;;;;5143057;27;20047;-80
2020/12/02 06:33:32;;;;;;;0.40;0.13;;;7.30;96.70;;;;;;5139719;27;20045;-79
2020/12/02 06:36:10;;;;;;;0.45;0.10;;;7.30;96.70;;;;;;5117543;27;20419;-80
2020/12/02 06:38:38;;;;;;;0.45;0.10;;;7.30;96.70;;;;;;5144268;27;20491;-80
2020/12/02 06:41:23;;;;;;;1.55;0.10;;;7.30;96.70;;;;;;5124253;27;20103;-80
2020/12/02 06:43:56;;;;;;;0.10;0.10;;;7.30;96.70;;;;;;5105106;27;20051;-79
2020/12/02 06:46:52;;;;;;;0.75;0.10;;;7.30;96.70;;;;;;5122784;27;20112;-80
2020/12/02 06:49:20;;;;;;;0.30;0.10;;;7.30;96.70;;;;;;5143567;27;20062;-81
2020/12/02 06:51:55;;;;;;;0.73;0.00;;;7.30;96.70;;;;;;5124999;27;20145;-80
2020/12/02 06:54:23;;;;;;;0.08;0.00;;;7.30;96.70;;;;;;5105044;27;20078;-80
2020/12/02 06:56:57;;;;;;;0.95;0.20;;;7.30;96.70;;;;;;5120271;27;20035;-80
2020/12/02 06:59:24;;;;;;;0.80;0.22;;;7.20;96.70;;;;;;5123832;27;20067;-79
2020/12/02 07:01:52;;;;;;;0.85;0.40;;;7.20;96.70;;;;;;5122893;27;20527;-80
2020/12/02 07:04:23;;;;;;;0.80;0.40;;;7.20;96.70;;;;;;5105736;27;20043;-80
2020/12/02 07:06:59;;;;;;;1.05;0.30;;;7.30;96.70;;;;;;5119733;27;20046;-80
2020/12/02 07:09:26;;;;;;;0.50;0.20;;;7.30;96.70;;;;;;5107711;27;20071;-80
2020/12/02 07:11:58;;;;;;;1.23;0.20;;;7.30;96.70;;;;;;5124616;27;20349;-80
2020/12/02 07:14:33;;;;;;;0.68;0.20;;;7.30;96.70;;;;;;5118216;27;20135;-80
2020/12/02 07:17:03;;;;;;;0.68;0.30;;;7.30;96.70;;;;;;5109085;27;20728;-80
2020/12/02 07:19:34;;;;;;;0.32;0.30;;;7.30;96.70;;;;;;5100621;27;20039;-80
2020/12/02 07:22:07;;;;;;;0.63;0.20;;;7.30;96.70;;;;;;5120699;27;20109;-80
2020/12/02 07:24:39;;;;;;;1.20;0.40;;;7.30;96.70;;;;;;5105778;27;20043;-80
2020/12/02 07:27:08;;;;;;;1.13;0.40;;;7.30;96.70;;;;;;5107100;27;20114;-80
2020/12/02 07:29:36;;;;;;;0.88;0.40;;;7.30;96.70;;;;;;5122985;27;20031;-81
2020/12/02 07:32:06;;;;;;;1.02;0.40;;;7.40;96.70;;;;;;5122748;27;20558;-80
2020/12/02 07:34:34;;;;;;;0.70;0.40;;;7.40;96.70;;;;;;5105973;27;20054;-81
2020/12/02 07:37:06;;;;;;;1.38;0.35;;;7.50;96.70;;;;;;5123037;27;20039;-80
2020/12/02 07:39:34;;;;;;;1.08;0.77;;;7.50;96.70;;;;;;5107716;27;20074;-80
2020/12/02 07:42:07;;;;;;;1.70;0.70;;;7.50;96.70;;;;;;5121119;27;20459;-81
2020/12/02 07:44:39;;;;;;;1.05;0.50;;;7.60;96.70;;;;;;5107544;27;20500;-80
2020/12/02 07:47:10;;;;;;;1.88;0.60;;;7.70;96.70;;;;;;5117307;27;20118;-79
2020/12/02 07:49:41;;;;;;;3.00;0.90;;;7.90;96.70;;;;;;5099906;27;20085;-79
2020/12/02 07:52:18;;;;;;;2.38;0.90;;;8.00;96.70;;;;;;5116174;27;20043;-79
2020/12/02 07:54:45;;;;;;;3.83;1.20;;;8.10;96.70;;;;;;5118308;27;20972;-79
2020/12/02 07:57:15;;;;;;;4.32;0.82;;;8.20;96.70;;;;;;5121621;27;20096;-79
2020/12/02 08:00:04;;;;;;;1.92;0.90;;;8.30;96.70;;;;;;5137921;27;20043;-81
2020/12/02 08:02:40;;;;;;;0.95;0.50;;;8.20;96.70;;;;;;5119008;27;20555;-81
2020/12/02 08:05:29;;;;;;;1.15;0.40;;;8.20;96.70;;;;;;5100139;27;20039;-80
2020/12/02 08:08:02;;;;;;;1.20;0.55;;;8.20;96.70;;;;;;5102310;27;20128;-79
2020/12/02 08:10:33;;;;;;;0.75;0.47;;;8.10;96.70;;;;;;5140454;27;20035;-79
2020/12/02 08:13:04;;;;;;;0.80;0.38;;;8.10;96.70;;;;;;5120330;27;20099;-79
2020/12/02 08:15:44;;;;;;;0.98;0.52;;;8.10;96.70;;;;;;5116880;27;20042;-79
2020/12/02 08:18:16;;;;;;;1.23;0.60;;;8.20;96.70;;;;;;5119066;27;20050;-79
2020/12/02 08:20:44;;;;;;;1.40;0.50;;;8.20;96.70;;;;;;5140646;27;20049;-79
2020/12/02 08:23:17;;;;;;;3.28;0.50;;;8.40;96.70;;;;;;5123057;27;20031;-80
2020/12/02 08:25:54;;;;;;;0.85;0.43;;;8.60;96.70;;;;;;5108467;27;20057;-80
2020/12/02 08:28:27;;;;;;;0.77;0.30;;;8.70;96.70;;;;;;5121117;27;20058;-81
2020/12/02 08:31:10;;;;;;;0.80;0.30;;;8.60;96.70;;;;;;5121439;27;20058;-82
2020/12/02 08:33:38;;;;;;;0.88;0.40;;;8.60;96.70;;;;;;5127228;27;20066;-82
2020/12/02 08:36:09;;;;;;;1.52;0.55;;;8.60;96.70;;;;;;5102627;27;20133;-82
2020/12/02 08:38:40;;;;;;;3.75;0.57;;;8.60;96.70;;;;;;5116409;27;20042;-82
2020/12/02 08:41:25;;;;;;;0.70;0.40;;;8.70;96.70;;;;;;5140041;27;20034;-82
2020/12/02 08:44:06;;;;;;;3.97;0.88;;;8.80;96.70;;;;;;5140292;27;20035;-82
2020/12/02 08:46:46;;;;;;;1.35;0.50;;;9.00;96.70;;;;;;5103863;27;20042;-82
2020/12/02 08:49:13;;;;;;;1.25;0.45;;;9.10;96.70;;;;;;5103481;27;20452;-78
2020/12/02 08:51:42;;;;;;;0.82;0.40;;;9.10;96.70;;;;;;5115911;27;20057;-78
2020/12/02 08:54:13;;;;;;;1.55;0.63;;;9.20;96.70;;;;;;5120213;27;20113;-78
2020/12/02 08:56:41;;;;;;;2.10;0.50;;;9.30;96.70;;;;;;5120262;27;20046;-80
2020/12/02 08:59:11;;;;;;;1.70;0.80;;;9.40;96.70;;;;;;5137338;27;20280;-79
2020/12/02 09:01:38;;;;;;;0.50;0.28;;;9.40;96.70;;;;;;5133270;27;20043;-80
2020/12/02 09:04:06;;;;;;;1.20;0.55;;;9.50;96.70;;;;;;5120570;27;20043;-82
2020/12/02 09:06:33;;;;;;;1.05;0.40;;;9.60;96.70;;;;;;5102391;27;20510;-79
2020/12/02 09:09:01;;;;;;;0.47;0.30;;;9.60;96.70;;;;;;5103759;27;20035;-79
2020/12/02 09:11:31;;;;;;;1.48;0.47;;;9.70;96.70;;;;;;5119168;27;20110;-79
2020/12/02 09:14:00;;;;;;;0.95;0.60;;;9.70;96.70;;;;;;5119062;27;20042;-81
2020/12/02 09:16:31;;;;;;;1.25;0.50;;;9.80;96.70;;;;;;5131459;27;20042;-82
2020/12/02 09:19:00;;;;;;;2.28;0.40;;;9.70;96.70;;;;;;5119814;27;20039;-83
2020/12/02 09:21:29;;;;;;;2.35;0.82;;;9.50;96.70;;;;;;5118000;27;20063;-83
2020/12/02 09:23:58;;;;;;;0.82;0.30;;;9.40;96.70;;;;;;5099942;27;20546;-83
2020/12/02 09:26:30;;;;;;;1.00;0.50;;;9.40;96.70;;;;;;5120303;27;20035;-80
2020/12/02 09:29:01;;;;;;;2.05;0.60;;;9.30;96.70;;;;;;5122481;27;20034;-82
2020/12/02 09:31:30;;;;;;;1.27;0.30;;;9.20;96.70;;;;;;5122780;27;20146;-83
2020/12/02 09:33:57;;;;;;;0.80;0.40;;;9.20;96.70;;;;;;5124756;27;20042;-82
2020/12/02 09:36:26;;;;;;;2.45;0.50;;;9.30;96.70;;;;;;5123956;27;20134;-82
2020/12/02 09:38:54;;;;;;;1.00;0.52;;;9.20;96.70;;;;;;5117422;27;20161;-83
2020/12/02 09:41:34;;;;;;;0.40;0.30;;;9.30;96.70;;;;;;5128182;27;20118;-82
2020/12/02 09:44:24;;;;;;;1.20;0.47;;;9.40;96.70;;;;;;5103738;27;20046;-82
2020/12/02 09:46:55;;;;;;;1.45;0.70;;;9.50;96.70;;;;;;5119004;27;20566;-82
2020/12/02 09:49:23;;;;;;;1.38;0.73;;;9.60;96.70;;;;;;5123884;27;20853;-80
2020/12/02 09:52:16;;;;;;;1.63;0.80;;;9.60;96.70;;;;;;5124167;27;20400;-79
2020/12/02 09:54:46;;;;;;;3.97;0.90;;;9.70;96.70;;;;;;5096606;27;20050;-82
2020/12/02 09:57:15;;;;;;;1.15;0.57;;;9.80;96.70;;;;;;5116385;27;20047;-82
2020/12/02 09:59:45;;;;;;;0.77;0.40;;;9.70;96.70;;;;;;5142578;27;20119;-80
2020/12/02 10:02:32;;;;;;;0.73;0.50;;;9.70;96.70;;;;;;5105164;27;20522;-79
2020/12/02 10:05:15;;;;;;;2.25;0.60;;;9.70;96.70;;;;;;5110018;27;20042;-80
2020/12/02 10:07:57;;;;;;;1.63;0.80;;;9.70;96.70;;;;;;5122360;27;20039;-82
2020/12/02 10:10:38;;;;;;;1.52;0.60;;;9.70;96.70;;;;;;5120678;27;20049;-82
2020/12/02 10:13:19;;;;;;;2.10;0.50;;;9.80;96.70;;;;;;5137665;27;20046;-80
2020/12/02 10:15:58;;;;;;;1.45;0.98;;;9.80;96.70;;;;;;5123842;27;20039;-81
2020/12/02 10:18:52;;;;;;;2.10;1.00;;;9.80;96.70;;;;;;5122761;27;20026;-82
2020/12/02 10:21:35;;;;;;;1.20;0.70;;;9.90;96.70;;;;;;5116373;27;20051;-82
2020/12/02 10:24:11;;;;;;;1.95;1.02;;;9.90;96.70;;;;;;5119528;27;20042;-80
2020/12/02 10:27:06;;;;;;;2.60;1.50;;;9.80;96.70;;;;;;5103359;27;20063;-84
2020/12/02 10:29:44;;;;;;;3.65;1.55;;;9.80;96.70;;;;;;5123337;27;20087;-83
2020/12/02 10:32:28;;;;;;;2.17;1.25;;;9.70;96.70;;;;;;5106751;27;20111;-83
2020/12/02 10:34:56;;;;;;;1.92;1.17;;;9.60;96.70;;;;;;5113817;27;20082;-91
2020/12/02 10:37:29;;;;;;;2.90;1.58;;;9.60;96.70;;;;;;5104433;27;20038;-84
2020/12/02 10:39:56;;;;;;;2.15;1.45;;;9.60;96.70;;;;;;5120656;27;20043;-83
2020/12/02 10:42:36;;;;;;;3.28;1.15;;;9.60;96.70;;;;;;5107859;27;20049;-83
2020/12/02 10:45:09;;;;;;;2.72;0.80;;;9.50;96.70;;;;;;5139593;27;20054;-83
2020/12/02 10:48:01;;;;;;;3.88;2.78;;;9.50;96.70;;;;;;5123186;27;20042;-85
2020/12/02 10:50:31;;;;;;;4.47;2.55;;;9.50;96.70;;;;;;5120984;27;20501;-83
2020/12/02 10:53:02;;;;;;;2.85;1.63;;;9.40;96.70;;;;;;5108287;27;20092;-81
2020/12/02 10:55:32;;;;;;;1.70;1.20;;;9.40;96.70;;;;;;5121711;27;20038;-84
2020/12/02 10:58:03;;;;;;;2.42;1.60;;;9.50;96.70;;;;;;5128169;27;20039;-83
2020/12/02 11:00:32;;;;;;;4.35;2.92;;;9.50;96.70;;;;;;5119528;27;20095;-84
2020/12/02 11:03:11;;;;;;;4.38;2.90;;;9.50;96.70;;;;;;5144893;27;20038;-88
2020/12/02 11:05:38;;;;;;;4.18;3.08;;;9.50;96.70;;;;;;5122053;27;20133;-86
2020/12/02 11:08:15;;;;;;;5.13;3.40;;;9.50;96.70;;;;;;5124499;27;20038;-85
2020/12/02 11:10:54;;;;;;;3.63;2.80;;;9.40;96.70;;;;;;5103796;27;20054;-85
2020/12/02 11:13:32;;;;;;;3.33;2.42;;;9.40;96.70;;;;;;5125653;27;20125;-89
2020/12/02 11:16:05;;;;;;;5.18;2.30;;;9.40;96.70;;;;;;5117000;27;20043;-86
2020/12/02 11:18:56;;;;;;;2.55;1.85;;;9.40;96.70;;;;;;5121769;27;20035;-85
2020/12/02 11:21:40;;;;;;;4.07;2.70;;;9.50;96.70;;;;;;5101912;27;20047;-86
2020/12/02 11:24:25;;;;;;;6.07;3.20;;;9.50;96.70;;;;;;5138589;27;20045;-86
2020/12/02 11:26:52;;;;;;;4.30;2.85;;;9.60;96.70;;;;;;5120854;27;20043;-85
2020/12/02 11:29:20;;;;;;;3.30;2.17;;;9.60;96.70;;;;;;5108136;27;20564;-82
2020/12/02 11:32:11;;;;;;;3.90;2.25;;;9.70;96.70;;;;;;5107017;27;20122;-81
2020/12/02 11:34:54;;;;;;;4.05;2.00;;;9.70;96.70;;;;;;5121308;27;20041;-84
2020/12/02 11:37:29;;;;;;;4.13;2.50;;;9.70;96.70;;;;;;5139083;27;20805;-84
2020/12/02 11:40:05;;;;;;;4.68;1.88;;;9.80;96.70;;;;;;5117689;27;20047;-83
2020/12/02 11:42:40;;;;;;;2.90;1.80;;;10.00;96.70;;;;;;5106991;27;20437;-92
2020/12/02 11:45:14;;;;;;;4.60;3.00;;;10.20;96.70;;;;;;5123435;27;20592;-86
2020/12/02 11:47:53;;;;;;;5.53;2.85;;;10.50;96.70;;;;;;5116393;27;20142;-85
2020/12/02 11:50:31;;;;;;;4.90;3.30;;;10.40;96.70;;;;;;5117626;27;20618;-82
2020/12/02 11:53:07;;;;;;;3.33;2.40;;;10.50;96.70;;;;;;5137053;27;20183;-84
2020/12/02 11:55:36;;;;;;;3.08;2.25;;;10.50;96.70;;;;;;5132305;27;20047;-84
2020/12/02 11:58:08;;;;;;;3.22;2.22;;;10.50;96.70;;;;;;5120372;27;20031;-86
2020/12/02 12:00:36;;;;;;;2.55;1.33;;;10.50;96.70;;;;;;5115452;27;20516;-85
2020/12/02 12:03:23;;;;;;;3.70;1.50;;;10.50;96.70;;;;;;5123035;27;20027;-87
2020/12/02 12:06:03;;;;;;;3.65;2.15;;;10.50;96.70;;;;;;5121496;27;20046;-85
2020/12/02 12:08:41;;;;;;;4.07;3.00;;;10.50;96.70;;;;;;5134915;27;20039;-86
2020/12/02 12:11:21;;;;;;;2.88;1.88;;;10.50;96.70;;;;;;5106077;27;20043;-84
2020/12/02 12:13:54;;;;;;;3.83;2.38;;;10.70;96.70;;;;;;5131207;27;20046;-84
2020/12/02 12:16:32;;;;;;;3.15;2.25;;;10.70;96.70;;;;;;5122106;27;20051;-84
2020/12/02 12:19:03;;;;;;;3.88;1.50;;;10.70;96.70;;;;;;5119147;27;20046;-84
2020/12/02 12:21:43;;;;;;;2.95;1.45;;;10.70;96.70;;;;;;5117702;27;20039;-87
2020/12/02 12:24:12;;;;;;;2.63;1.30;;;10.70;96.70;;;;;;5136688;27;20042;-87
2020/12/02 12:26:49;;;;;;;4.50;1.92;;;10.80;96.70;;;;;;5119863;27;20131;-86
2020/12/02 12:29:17;;;;;;;2.92;1.73;;;10.70;96.70;;;;;;5121305;27;20113;-83
2020/12/02 12:31:48;;;;;;;2.22;1.60;;;10.80;96.70;;;;;;5118220;27;20062;-87
2020/12/02 12:34:25;;;;;;;3.55;1.40;;;10.80;96.70;;;;;;5118335;27;20039;-86
2020/12/02 12:37:00;;;;;;;4.07;1.98;;;11.00;96.70;;;;;;5104379;27;20088;-87
2020/12/02 12:39:32;;;;;;;2.85;2.22;;;11.00;96.70;;;;;;5121675;27;21476;-85
2020/12/02 12:42:01;;;;;;;3.30;2.00;;;11.10;96.70;;;;;;5139752;27;20039;-84
2020/12/02 12:44:32;;;;;;;3.35;1.58;;;11.20;96.70;;;;;;5119510;27;20054;-82
2020/12/02 12:47:10;;;;;;;4.47;2.50;;;11.30;96.70;;;;;;5129890;27;20039;-84
2020/12/02 12:49:41;;;;;;;3.13;2.42;;;11.30;96.70;;;;;;5135269;27;20039;-81
2020/12/02 12:52:14;;;;;;;4.78;3.17;;;11.30;96.70;;;;;;5101697;27;20034;-83
2020/12/02 12:54:42;;;;;;;3.83;2.22;;;11.30;96.70;;;;;;5119641;27;20062;-87
2020/12/02 12:57:13;;;;;;;5.68;3.78;;;11.30;96.70;;;;;;5120444;27;20473;-88
2020/12/02 12:59:41;;;;;;;3.40;2.13;;;11.30;96.70;;;;;;5120771;27;20193;-90
2020/12/02 13:02:18;;;;;;;88.47;62.30;;;11.50;96.70;;;;;;5137223;27;20041;-83
2020/12/02 13:04:45;;;;;;;24.77;18.83;;;11.50;96.70;;;;;;5117743;27;20133;-90
2020/12/02 13:07:19;;;;;;;8.13;5.47;;;11.60;96.70;;;;;;5123719;27;20503;-88
2020/12/02 13:10:10;;;;;;;5.85;4.00;;;11.50;96.70;;;;;;5126141;27;20264;-88
2020/12/02 13:12:45;;;;;;;8.45;5.20;;;11.50;96.70;;;;;;5113283;27;20062;-87
2020/12/02 13:15:20;;;;;;;5.53;3.35;;;11.60;96.70;;;;;;5124540;27;20039;-84
2020/12/02 13:17:56;;;;;;;7.53;3.58;;;11.50;96.70;;;;;;5105391;27;20039;-85
2020/12/02 13:20:29;;;;;;;8.07;3.95;;;11.40;96.70;;;;;;5118793;27;20039;-86
2020/12/02 13:23:08;;;;;;;6.43;5.20;;;11.40;96.70;;;;;;5108391;27;20061;-86